createdAt,value
2023-01-19T00:01:02.011Z,16.23
2023-01-19T00:03:29.247Z,16.40
2023-01-19T00:05:56.627Z,18.02
2023-01-19T00:08:23.943Z,18.50
2023-01-19T00:10:51.397Z,16.33
2023-01-19T00:13:20.238Z,21.33
2023-01-19T00:15:47.485Z,16.05
2023-01-19T00:18:14.743Z,15.23
2023-01-19T00:20:44.629Z,17.00
2023-01-19T00:23:11.935Z,14.27
2023-01-19T00:25:42.514Z,16.05
2023-01-19T00:28:10.762Z,18.33
2023-01-19T00:30:40.433Z,17.02
2023-01-19T00:33:07.732Z,18.17
2023-01-19T00:35:35.642Z,15.65
2023-01-19T00:38:03.357Z,17.17
2023-01-19T00:40:30.634Z,18.60
2023-01-19T00:42:58.705Z,19.23
2023-01-19T00:45:26.396Z,14.55
2023-01-19T00:47:57.099Z,16.85
2023-01-19T00:50:25.704Z,15.75
2023-01-19T00:52:53.706Z,15.10
2023-01-19T00:55:21.397Z,13.43
2023-01-19T00:57:48.973Z,16.50
2023-01-19T01:00:19.792Z,14.70
2023-01-19T01:02:48.753Z,19.37
2023-01-19T01:05:18.658Z,18.63
2023-01-19T01:07:46.932Z,13.20
2023-01-19T01:10:16.447Z,15.30
2023-01-19T01:12:56.168Z,18.15
2023-01-19T01:15:27.185Z,19.42
2023-01-19T01:17:54.550Z,16.00
2023-01-19T01:20:26.970Z,18.70
2023-01-19T01:22:55.066Z,16.38
2023-01-19T01:25:23.942Z,15.63
2023-01-19T01:27:51.214Z,15.98
2023-01-19T01:30:19.143Z,17.40
2023-01-19T01:32:46.578Z,14.90
2023-01-19T01:35:14.744Z,17.75
2023-01-19T01:37:43.374Z,16.90
2023-01-19T01:40:13.452Z,13.43
2023-01-19T01:42:40.721Z,13.98
2023-01-19T01:45:26.911Z,13.30
2023-01-19T01:47:58.133Z,18.58
2023-01-19T01:50:28.341Z,17.00
2023-01-19T01:53:07.076Z,19.00
2023-01-19T01:55:39.635Z,17.27
2023-01-19T01:58:09.328Z,13.25
2023-01-19T02:00:56.606Z,18.73
2023-01-19T02:03:25.853Z,15.07
2023-01-19T02:05:57.391Z,15.60
2023-01-19T02:08:50.828Z,14.25
2023-01-19T02:11:36.741Z,11.77
2023-01-19T02:14:04.688Z,16.92
2023-01-19T02:16:32.339Z,11.65
2023-01-19T02:19:01.115Z,14.32
2023-01-19T02:21:35.841Z,14.53
2023-01-19T02:24:06.354Z,16.95
2023-01-19T02:26:36.592Z,16.20
2023-01-19T02:29:06.838Z,17.97
2023-01-19T02:31:35.419Z,15.68
2023-01-19T02:34:03.878Z,17.13
2023-01-19T02:36:36.198Z,13.23
2023-01-19T02:39:06.188Z,13.90
2023-01-19T02:41:38.882Z,13.13
2023-01-19T02:44:08.394Z,18.17
2023-01-19T02:46:36.192Z,18.25
2023-01-19T02:49:03.528Z,18.67
2023-01-19T02:51:30.932Z,16.63
2023-01-19T02:54:20.154Z,18.15
2023-01-19T02:57:12.275Z,19.50
2023-01-19T02:59:52.138Z,18.07
2023-01-19T03:02:30.034Z,19.35
2023-01-19T03:05:06.948Z,19.23
2023-01-19T03:07:45.302Z,16.15
2023-01-19T03:10:20.345Z,17.95
2023-01-19T03:12:52.581Z,14.35
2023-01-19T03:15:23.549Z,19.02
2023-01-19T03:17:53.317Z,17.83
2023-01-19T03:20:25.422Z,14.98
2023-01-19T03:22:57.383Z,16.33
2023-01-19T03:25:28.071Z,16.25
2023-01-19T03:27:57.799Z,15.87
2023-01-19T03:30:28.144Z,20.75
2023-01-19T03:33:00.143Z,16.85
2023-01-19T03:35:32.258Z,18.43
2023-01-19T03:38:04.394Z,17.42
2023-01-19T03:40:34.497Z,14.95
2023-01-19T03:43:03.468Z,17.42
2023-01-19T03:45:33.398Z,18.13
2023-01-19T03:48:00.794Z,18.65
2023-01-19T03:50:30.040Z,18.48
2023-01-19T03:53:03.133Z,17.65
2023-01-19T03:55:30.781Z,18.85
2023-01-19T03:57:59.396Z,17.73
2023-01-19T04:00:26.644Z,16.08
2023-01-19T04:02:53.962Z,18.20
2023-01-19T04:05:22.275Z,17.85
2023-01-19T04:07:49.915Z,21.08
2023-01-19T04:10:18.194Z,17.23
2023-01-19T04:12:45.864Z,19.50
2023-01-19T04:15:15.189Z,15.77
2023-01-19T04:17:42.545Z,17.50
2023-01-19T04:20:10.623Z,21.67
2023-01-19T04:22:39.170Z,16.80
2023-01-19T04:25:07.959Z,17.73
2023-01-19T04:27:35.629Z,19.42
2023-01-19T04:30:04.343Z,18.30
2023-01-19T04:32:33.522Z,18.90
2023-01-19T04:35:00.855Z,15.38
2023-01-19T04:37:28.307Z,16.47
2023-01-19T04:39:55.569Z,16.60
2023-01-19T04:42:23.071Z,19.02
2023-01-19T04:44:50.323Z,16.75
2023-01-19T04:47:17.611Z,16.60
2023-01-19T04:49:46.201Z,16.80
2023-01-19T04:52:13.464Z,18.15
2023-01-19T04:54:40.686Z,19.50
2023-01-19T04:57:08.288Z,11.95
2023-01-19T04:59:35.528Z,16.67
2023-01-19T05:02:02.840Z,18.65
2023-01-19T05:04:30.178Z,20.43
2023-01-19T05:06:58.733Z,20.35
2023-01-19T05:09:27.186Z,18.35
2023-01-19T05:11:54.543Z,14.45
2023-01-19T05:14:22.029Z,15.55
2023-01-19T05:16:49.324Z,18.13
2023-01-19T05:19:16.588Z,21.00
2023-01-19T05:21:43.879Z,15.33
2023-01-19T05:24:12.685Z,16.15
2023-01-19T05:26:39.960Z,18.45
2023-01-19T05:29:08.215Z,17.83
2023-01-19T05:31:36.222Z,16.33
2023-01-19T05:34:03.894Z,17.80
2023-01-19T05:36:31.964Z,18.77
2023-01-19T05:38:59.359Z,17.93
2023-01-19T05:41:28.018Z,15.73
2023-01-19T05:43:55.282Z,16.15
2023-01-19T05:46:22.608Z,11.40
2023-01-19T05:48:49.912Z,16.05
2023-01-19T05:51:17.230Z,14.43
2023-01-19T05:53:44.655Z,15.90
2023-01-19T05:56:12.111Z,15.47
2023-01-19T05:58:40.743Z,14.38
2023-01-19T06:01:10.096Z,18.38
2023-01-19T06:03:39.548Z,18.07
2023-01-19T06:06:07.342Z,16.60
2023-01-19T06:08:34.665Z,16.52
2023-01-19T06:11:01.892Z,15.07
2023-01-19T06:13:29.141Z,16.42
2023-01-19T06:15:59.093Z,15.35
2023-01-19T06:18:26.843Z,16.13
2023-01-19T06:20:58.598Z,13.93
2023-01-19T06:23:26.122Z,17.13
2023-01-19T06:25:53.449Z,14.48
2023-01-19T06:28:20.761Z,17.57
2023-01-19T06:30:49.109Z,16.23
2023-01-19T06:33:18.805Z,13.98
2023-01-19T06:35:47.386Z,16.00
2023-01-19T06:38:15.471Z,16.57
2023-01-19T06:40:42.968Z,17.73
2023-01-19T06:43:11.080Z,17.10
2023-01-19T06:45:41.146Z,14.77
2023-01-19T06:48:08.585Z,16.05
2023-01-19T06:50:37.169Z,16.65
2023-01-19T06:53:04.478Z,14.75
2023-01-19T06:55:31.788Z,16.02
2023-01-19T06:57:59.716Z,15.15
2023-01-19T07:00:27.088Z,18.20
2023-01-19T07:02:54.641Z,15.73
2023-01-19T07:05:22.175Z,16.13
2023-01-19T07:07:54.456Z,16.08
2023-01-19T07:10:22.633Z,16.40
2023-01-19T07:12:50.444Z,19.35
2023-01-19T07:15:22.553Z,17.30
2023-01-19T07:17:50.009Z,13.90
2023-01-19T07:20:19.530Z,16.30
2023-01-19T07:22:46.954Z,16.23
2023-01-19T07:25:15.722Z,22.08
2023-01-19T07:27:43.027Z,16.33
2023-01-19T07:30:11.245Z,17.35
2023-01-19T07:32:38.983Z,17.52
2023-01-19T07:35:06.609Z,14.77
2023-01-19T07:37:33.901Z,14.20
2023-01-19T07:40:01.223Z,15.40
2023-01-19T07:42:29.883Z,18.80
2023-01-19T07:44:57.381Z,13.07
2023-01-19T07:47:24.751Z,16.27
2023-01-19T07:49:52.660Z,15.68
2023-01-19T07:52:19.903Z,13.90
2023-01-19T07:54:50.809Z,16.90
2023-01-19T07:57:19.210Z,16.40
2023-01-19T07:59:47.776Z,17.27
2023-01-19T08:02:16.368Z,14.00
2023-01-19T08:04:44.721Z,15.23
2023-01-19T08:07:12.600Z,15.98
2023-01-19T08:09:39.925Z,17.65
2023-01-19T08:12:07.257Z,14.37
2023-01-19T08:14:34.599Z,13.43
2023-01-19T08:17:03.820Z,12.77
2023-01-19T08:19:31.104Z,15.43
2023-01-19T08:21:59.202Z,14.68
2023-01-19T08:24:28.613Z,15.75
2023-01-19T08:26:59.562Z,12.13
2023-01-19T08:29:27.224Z,15.43
2023-01-19T08:31:56.468Z,10.00
2023-01-19T08:34:25.181Z,13.57
2023-01-19T08:36:52.455Z,11.68
2023-01-19T08:39:19.845Z,13.27
2023-01-19T08:41:47.160Z,12.48
2023-01-19T08:44:14.543Z,13.00
2023-01-19T08:46:41.917Z,12.60
2023-01-19T08:49:09.457Z,13.07
2023-01-19T08:51:38.230Z,11.53
2023-01-19T08:54:05.528Z,11.65
2023-01-19T08:56:32.840Z,10.48
2023-01-19T08:59:09.218Z,10.93
2023-01-19T09:01:37.712Z,15.23
2023-01-19T09:04:05.537Z,11.87
2023-01-19T09:06:32.958Z,9.82
2023-01-19T09:09:01.519Z,12.82
2023-01-19T09:11:28.786Z,11.13
2023-01-19T09:13:56.084Z,12.07
2023-01-19T09:16:23.393Z,11.30
2023-01-19T09:18:50.712Z,7.70
2023-01-19T09:21:18.588Z,11.43
2023-01-19T09:23:45.819Z,11.63
2023-01-19T09:26:14.533Z,10.63
2023-01-19T09:28:41.820Z,11.23
2023-01-19T09:31:09.505Z,10.88
2023-01-19T09:33:36.919Z,9.23
2023-01-19T09:36:04.446Z,11.80
2023-01-19T09:38:32.902Z,10.18
2023-01-19T09:41:01.189Z,13.73
2023-01-19T09:43:37.644Z,12.68
2023-01-19T09:46:12.770Z,9.68
2023-01-19T09:48:45.846Z,10.48
2023-01-19T09:51:18.639Z,10.52
2023-01-19T09:53:56.445Z,11.20
2023-01-19T09:56:24.570Z,10.35
2023-01-19T09:58:53.241Z,10.77
2023-01-19T10:01:35.145Z,10.75
2023-01-19T10:04:26.282Z,11.57
2023-01-19T10:07:03.548Z,10.73
2023-01-19T10:09:37.098Z,8.77
2023-01-19T10:12:12.522Z,11.13
2023-01-19T10:14:48.031Z,11.88
2023-01-19T10:17:26.269Z,10.75
2023-01-19T10:19:56.923Z,12.97
2023-01-19T10:22:26.807Z,9.73
2023-01-19T10:24:56.954Z,9.30
2023-01-19T10:27:28.395Z,9.48
2023-01-19T10:29:57.269Z,9.77
2023-01-19T10:32:26.850Z,10.50
2023-01-19T10:34:55.693Z,10.45
2023-01-19T10:37:30.592Z,10.82
2023-01-19T10:40:02.270Z,9.65
2023-01-19T10:42:30.852Z,10.93
2023-01-19T10:44:59.594Z,9.77
2023-01-19T10:47:33.442Z,13.20
2023-01-19T10:50:06.208Z,10.68
2023-01-19T10:52:36.382Z,8.82
2023-01-19T10:55:06.729Z,10.93
2023-01-19T10:57:38.235Z,11.27
2023-01-19T11:00:37.832Z,10.02
2023-01-19T11:03:20.867Z,11.07
2023-01-19T11:05:48.213Z,12.30
2023-01-19T11:08:23.294Z,10.10
2023-01-19T11:10:55.389Z,9.33
2023-01-19T11:13:22.687Z,12.07
2023-01-19T11:15:55.088Z,10.93
2023-01-19T11:18:27.381Z,10.05
2023-01-19T11:20:57.015Z,9.77
2023-01-19T11:23:27.948Z,11.27
2023-01-19T11:25:58.012Z,10.07
2023-01-19T11:28:29.897Z,10.75
2023-01-19T11:31:00.742Z,9.90
2023-01-19T11:33:34.130Z,8.73
2023-01-19T11:36:07.143Z,10.30
2023-01-19T11:38:43.438Z,10.77
2023-01-19T11:41:18.764Z,13.60
2023-01-19T11:43:49.589Z,9.30
2023-01-19T11:46:19.044Z,10.50
2023-01-19T11:48:50.664Z,13.20
2023-01-19T11:51:22.067Z,11.10
2023-01-19T11:53:53.194Z,12.20
2023-01-19T11:56:25.823Z,12.20
2023-01-19T11:58:53.284Z,12.10
2023-01-19T12:01:24.817Z,10.53
2023-01-19T12:03:58.924Z,12.45
2023-01-19T12:06:30.710Z,11.40
2023-01-19T12:09:01.603Z,10.52
2023-01-19T12:11:34.413Z,10.80
2023-01-19T12:14:02.403Z,11.63
2023-01-19T12:16:33.920Z,11.32
2023-01-19T12:19:05.125Z,13.73
2023-01-19T12:21:32.453Z,13.40
2023-01-19T12:24:11.507Z,11.50
2023-01-19T12:26:48.725Z,12.17
2023-01-19T12:29:19.842Z,14.30
2023-01-19T12:32:17.849Z,11.23
2023-01-19T12:34:46.801Z,15.75
2023-01-19T12:37:35.887Z,11.30
2023-01-19T12:40:18.418Z,12.50
2023-01-19T12:42:47.861Z,13.45
2023-01-19T12:45:18.097Z,13.50
2023-01-19T12:47:53.131Z,9.85
2023-01-19T12:50:25.645Z,12.48
2023-01-19T12:52:57.357Z,15.13
2023-01-19T12:55:30.950Z,11.93
2023-01-19T12:58:01.541Z,13.18
2023-01-19T13:00:32.556Z,13.38
2023-01-19T13:03:02.450Z,12.07
2023-01-19T13:05:57.993Z,13.67
2023-01-19T13:08:29.993Z,13.43
2023-01-19T13:11:19.814Z,13.85
2023-01-19T13:14:26.878Z,12.23
2023-01-19T13:17:14.926Z,11.50
2023-01-19T13:19:52.050Z,12.17
2023-01-19T13:23:02.569Z,10.95
2023-01-19T13:25:34.203Z,10.13
2023-01-19T13:28:06.901Z,13.75
2023-01-19T13:30:35.270Z,13.40
2023-01-19T13:33:10.047Z,12.30
2023-01-19T13:35:38.853Z,12.50
2023-01-19T13:38:07.449Z,12.95
2023-01-19T13:40:38.902Z,14.55
2023-01-19T13:43:15.944Z,13.25
2023-01-19T13:45:50.691Z,15.40
2023-01-19T13:48:22.163Z,11.20
2023-01-19T13:51:03.964Z,14.13
2023-01-19T13:53:32.375Z,13.13
2023-01-19T13:56:16.503Z,11.88
2023-01-19T13:58:44.150Z,12.63
2023-01-19T14:01:22.560Z,13.88
2023-01-19T14:03:53.002Z,13.23
2023-01-19T14:06:32.637Z,13.65
2023-01-19T14:09:16.739Z,14.93
2023-01-19T14:11:45.729Z,12.60
2023-01-19T14:14:26.650Z,12.82
2023-01-19T14:16:54.497Z,15.35
2023-01-19T14:19:21.899Z,11.65
2023-01-19T14:22:00.946Z,14.35
2023-01-19T14:24:32.013Z,13.33
2023-01-19T14:27:09.777Z,11.93
2023-01-19T14:29:38.097Z,12.85
2023-01-19T14:32:13.285Z,16.05
2023-01-19T14:34:42.002Z,14.65
2023-01-19T14:37:17.850Z,14.00
2023-01-19T14:39:46.794Z,14.50
2023-01-19T14:42:19.221Z,11.50
2023-01-19T14:44:49.773Z,15.23
2023-01-19T14:47:31.024Z,12.80
2023-01-19T14:50:02.494Z,14.47
2023-01-19T14:52:36.400Z,14.68
2023-01-19T14:55:08.170Z,15.45
2023-01-19T14:57:38.967Z,15.60
2023-01-19T15:00:17.741Z,14.32
2023-01-19T15:02:45.901Z,12.53
2023-01-19T15:05:13.967Z,14.45
2023-01-19T15:07:45.206Z,11.77
2023-01-19T15:10:18.300Z,11.73
2023-01-19T15:12:45.562Z,14.80
2023-01-19T15:15:17.915Z,12.90
2023-01-19T15:17:45.559Z,16.75
2023-01-19T15:20:18.111Z,13.38
2023-01-19T15:22:47.605Z,16.30
2023-01-19T15:25:15.996Z,14.40
2023-01-19T15:27:43.664Z,15.23
2023-01-19T15:30:16.982Z,15.63
2023-01-19T15:32:44.695Z,15.45
2023-01-19T15:35:17.367Z,15.35
2023-01-19T15:37:45.169Z,17.30
2023-01-19T15:40:15.299Z,14.00
2023-01-19T15:42:42.756Z,15.50
2023-01-19T15:45:32.356Z,14.27
2023-01-19T15:48:00.711Z,14.27
2023-01-19T15:50:28.058Z,14.93
2023-01-19T15:52:55.357Z,14.70
2023-01-19T15:55:24.180Z,14.80
2023-01-19T15:57:51.427Z,14.50
2023-01-19T16:00:19.209Z,15.82
2023-01-19T16:02:46.608Z,16.80
2023-01-19T16:05:13.898Z,16.67
2023-01-19T16:07:41.264Z,14.05
2023-01-19T16:10:09.714Z,15.90
2023-01-19T16:12:38.783Z,12.38
2023-01-19T16:15:07.431Z,17.60
2023-01-19T16:17:34.990Z,13.97
2023-01-19T16:20:02.644Z,13.80
2023-01-19T16:22:30.117Z,16.08
2023-01-19T16:24:57.483Z,14.02
2023-01-19T16:27:25.409Z,15.77
2023-01-19T16:29:53.973Z,16.47
2023-01-19T16:32:21.223Z,17.65
2023-01-19T16:34:48.795Z,13.80
2023-01-19T16:37:16.032Z,14.60
2023-01-19T16:39:45.378Z,15.82
2023-01-19T16:42:12.733Z,14.70
2023-01-19T16:44:40.091Z,14.57
2023-01-19T16:47:08.799Z,17.02
2023-01-19T16:49:36.266Z,16.02
2023-01-19T16:52:03.875Z,15.18
2023-01-19T16:54:32.159Z,12.17
2023-01-19T16:56:59.943Z,15.23
2023-01-19T16:59:29.005Z,15.20
2023-01-19T17:01:56.941Z,13.77
2023-01-19T17:04:27.128Z,15.00
2023-01-19T17:06:54.861Z,16.43
2023-01-19T17:09:22.331Z,16.23
2023-01-19T17:11:49.649Z,16.95
2023-01-19T17:14:20.447Z,18.20
2023-01-19T17:16:48.775Z,17.45
2023-01-19T17:19:17.718Z,15.33
2023-01-19T17:21:50.667Z,17.25
2023-01-19T17:24:18.314Z,14.38
2023-01-19T17:26:48.494Z,17.08
2023-01-19T17:29:16.619Z,14.48
2023-01-19T17:31:44.603Z,16.67
2023-01-19T17:34:11.959Z,14.93
2023-01-19T17:36:40.933Z,15.13
2023-01-19T17:39:14.617Z,16.58
2023-01-19T17:41:41.987Z,16.53
2023-01-19T17:44:10.763Z,13.77
2023-01-19T17:46:38.726Z,18.25
2023-01-19T17:49:07.328Z,16.25
2023-01-19T17:51:35.061Z,16.92
2023-01-19T17:54:04.023Z,18.03
2023-01-19T17:56:36.796Z,16.90
2023-01-19T17:59:06.491Z,17.08
2023-01-19T18:01:34.668Z,15.90
2023-01-19T18:04:02.568Z,17.60
2023-01-19T18:06:30.192Z,17.67
2023-01-19T18:08:59.324Z,16.17
2023-01-19T18:11:27.546Z,19.33
2023-01-19T18:13:56.457Z,18.55
2023-01-19T18:16:25.957Z,15.73
2023-01-19T18:18:54.619Z,19.90
2023-01-19T18:21:23.690Z,14.23
2023-01-19T18:23:51.615Z,16.73
2023-01-19T18:26:21.428Z,14.63
2023-01-19T18:28:49.384Z,15.18
2023-01-19T18:31:19.157Z,16.17
2023-01-19T18:33:47.750Z,15.77
2023-01-19T18:36:16.011Z,16.50
2023-01-19T18:38:43.433Z,17.05
2023-01-19T18:41:12.719Z,17.23
2023-01-19T18:43:40.303Z,17.27
2023-01-19T18:46:08.219Z,18.83
2023-01-19T18:48:37.571Z,15.15
2023-01-19T18:51:06.180Z,13.98
2023-01-19T18:53:33.515Z,15.57
2023-01-19T18:56:02.073Z,16.97
2023-01-19T18:58:31.533Z,20.10
2023-01-19T19:01:00.048Z,16.65
2023-01-19T19:03:28.043Z,16.70
2023-01-19T19:05:56.956Z,19.08
2023-01-19T19:08:24.421Z,18.70
2023-01-19T19:10:51.692Z,19.15
2023-01-19T19:13:21.764Z,15.13
2023-01-19T19:15:52.428Z,17.33
2023-01-19T19:18:19.835Z,16.45
2023-01-19T19:20:47.095Z,17.17
2023-01-19T19:23:15.704Z,15.65
2023-01-19T19:25:42.952Z,14.43
2023-01-19T19:28:10.175Z,17.65
2023-01-19T19:30:38.983Z,18.75
2023-01-19T19:33:07.725Z,14.70
2023-01-19T19:35:35.049Z,17.45
2023-01-19T19:38:02.281Z,16.85
2023-01-19T19:40:30.876Z,13.30
2023-01-19T19:42:58.908Z,16.20
2023-01-19T19:45:26.754Z,16.07
2023-01-19T19:47:54.010Z,16.80
2023-01-19T19:50:21.250Z,17.92
2023-01-19T19:52:48.528Z,16.17
2023-01-19T19:55:15.863Z,16.33
2023-01-19T19:57:44.565Z,17.67
2023-01-19T20:00:12.797Z,18.77
2023-01-19T20:02:40.210Z,17.02
2023-01-19T20:05:08.075Z,16.30
2023-01-19T20:07:35.341Z,18.23
2023-01-19T20:10:02.639Z,14.50
2023-01-19T20:12:29.870Z,16.45
2023-01-19T20:14:58.431Z,12.85
2023-01-19T20:17:25.675Z,15.43
2023-01-19T20:19:52.941Z,17.13
2023-01-19T20:22:20.214Z,18.03
2023-01-19T20:24:47.723Z,15.70
2023-01-19T20:27:14.988Z,14.85
2023-01-19T20:29:42.255Z,15.25
2023-01-19T20:32:11.465Z,15.00
2023-01-19T20:34:39.928Z,15.70
2023-01-19T20:37:07.286Z,14.05
2023-01-19T20:39:36.710Z,17.90
2023-01-19T20:42:05.436Z,14.80
2023-01-19T20:44:32.703Z,14.75
2023-01-19T20:46:59.948Z,13.50
2023-01-19T20:49:28.644Z,13.07
2023-01-19T20:51:55.964Z,13.80
2023-01-19T20:54:27.008Z,13.98
2023-01-19T20:56:54.551Z,13.00
2023-01-19T20:59:22.216Z,15.77
2023-01-19T21:01:49.967Z,16.08
2023-01-19T21:04:17.555Z,17.35
2023-01-19T21:06:46.214Z,15.35
2023-01-19T21:09:13.606Z,17.75
2023-01-19T21:11:40.931Z,15.73
2023-01-19T21:14:08.227Z,16.40
2023-01-19T21:16:36.250Z,16.38
2023-01-19T21:19:04.185Z,14.13
2023-01-19T21:21:32.141Z,13.25
2023-01-19T21:24:02.420Z,15.20
2023-01-19T21:26:30.433Z,15.90
2023-01-19T21:28:58.259Z,15.65
2023-01-19T21:31:27.730Z,16.48
2023-01-19T21:33:55.760Z,15.98
2023-01-19T21:36:23.194Z,17.77
2023-01-19T21:38:51.408Z,17.92
2023-01-19T21:41:20.354Z,19.15
2023-01-19T21:43:47.651Z,14.88
2023-01-19T21:46:19.186Z,13.30
2023-01-19T21:48:46.895Z,16.77
2023-01-19T21:51:15.235Z,14.93
2023-01-19T21:53:42.580Z,15.25
2023-01-19T21:56:11.381Z,16.23
2023-01-19T21:58:40.012Z,15.00
2023-01-19T22:01:13.592Z,14.07
2023-01-19T22:03:41.808Z,16.63
2023-01-19T22:06:11.526Z,15.40
2023-01-19T22:08:40.064Z,16.20
2023-01-19T22:11:09.356Z,13.07
2023-01-19T22:13:40.245Z,14.67
2023-01-19T22:16:10.837Z,17.13
2023-01-19T22:18:39.886Z,14.25
2023-01-19T22:21:08.966Z,14.95
2023-01-19T22:23:36.672Z,14.40
2023-01-19T22:26:04.426Z,13.67
2023-01-19T22:28:31.816Z,13.25
2023-01-19T22:31:11.520Z,15.07
2023-01-19T22:33:39.405Z,15.55
2023-01-19T22:36:15.388Z,16.85
2023-01-19T22:38:44.036Z,13.27
2023-01-19T22:41:15.865Z,14.60
2023-01-19T22:43:43.870Z,16.27
2023-01-19T22:46:12.865Z,14.02
2023-01-19T22:48:40.530Z,12.80
2023-01-19T22:51:08.014Z,16.73
2023-01-19T22:53:35.344Z,15.63
2023-01-19T22:56:09.935Z,14.63
2023-01-19T22:58:37.221Z,15.23
2023-01-19T23:01:06.129Z,16.83
2023-01-19T23:03:34.919Z,18.43
2023-01-19T23:06:06.084Z,15.70
2023-01-19T23:08:34.197Z,16.40
2023-01-19T23:11:05.099Z,15.10
2023-01-19T23:13:32.408Z,13.32
2023-01-19T23:16:00.161Z,15.20
2023-01-19T23:18:27.779Z,18.02
2023-01-19T23:21:01.402Z,16.25
2023-01-19T23:23:28.654Z,16.50
2023-01-19T23:25:59.695Z,16.40
2023-01-19T23:28:27.393Z,15.83
2023-01-19T23:30:54.958Z,15.07
2023-01-19T23:33:22.635Z,20.15
2023-01-19T23:35:49.932Z,13.88
2023-01-19T23:38:18.616Z,14.82
2023-01-19T23:40:46.375Z,13.40
2023-01-19T23:43:13.668Z,14.30
2023-01-19T23:45:41.001Z,15.88
2023-01-19T23:48:08.262Z,15.35
2023-01-19T23:50:39.437Z,16.33
2023-01-19T23:53:06.969Z,15.40
2023-01-19T23:55:35.607Z,17.15
2023-01-19T23:58:02.847Z,18.00
